createdAt,value
2017-09-01T00:01:37.459Z,99.90
2017-09-01T00:04:04.899Z,99.90
2017-09-01T00:06:32.372Z,99.90
2017-09-01T00:08:59.857Z,99.90
2017-09-01T00:11:27.488Z,99.90
2017-09-01T00:13:55.408Z,99.90
2017-09-01T00:16:23.902Z,99.90
2017-09-01T00:18:53.499Z,99.90
2017-09-01T00:21:21.024Z,99.90
2017-09-01T00:23:48.722Z,99.90
2017-09-01T00:26:16.385Z,99.90
2017-09-01T00:28:44.029Z,99.90
2017-09-01T00:31:11.471Z,99.90
2017-09-01T00:33:38.967Z,99.90
2017-09-01T00:36:06.655Z,99.90
2017-09-01T00:38:34.499Z,99.90
2017-09-01T00:41:02.060Z,99.90
2017-09-01T00:43:29.844Z,99.90
2017-09-01T00:45:57.553Z,99.90
2017-09-01T00:48:24.998Z,99.90
2017-09-01T00:50:52.438Z,99.90
2017-09-01T00:53:19.876Z,99.90
2017-09-01T00:55:47.319Z,99.90
2017-09-01T00:58:14.758Z,99.90
2017-09-01T01:00:42.208Z,99.90
2017-09-01T01:03:09.642Z,99.90
2017-09-01T01:05:37.091Z,99.90
2017-09-01T01:08:04.535Z,99.90
2017-09-01T01:10:31.983Z,99.90
2017-09-01T01:12:59.419Z,99.90
2017-09-01T01:15:26.862Z,99.90
2017-09-01T01:17:54.306Z,99.90
2017-09-01T01:20:21.747Z,99.90
2017-09-01T01:22:49.184Z,99.90
2017-09-01T01:25:16.635Z,99.90
2017-09-01T01:27:44.073Z,99.90
2017-09-01T01:30:11.515Z,99.90
2017-09-01T01:32:38.956Z,99.90
2017-09-01T01:35:06.406Z,99.90
2017-09-01T01:37:33.840Z,99.90
2017-09-01T01:40:01.296Z,99.90
2017-09-01T01:42:28.754Z,99.90
2017-09-01T01:44:56.178Z,99.90
2017-09-01T01:47:23.625Z,99.90
2017-09-01T01:49:51.064Z,99.90
2017-09-01T01:52:18.507Z,99.90
2017-09-01T01:54:45.947Z,99.90
2017-09-01T01:57:13.395Z,99.90
2017-09-01T01:59:40.839Z,99.90
2017-09-01T02:02:08.296Z,99.90
2017-09-01T02:04:35.739Z,99.90
2017-09-01T02:07:03.183Z,99.90
2017-09-01T02:09:30.626Z,99.90
2017-09-01T02:11:58.067Z,99.90
2017-09-01T02:14:25.513Z,99.90
2017-09-01T02:16:52.956Z,99.90
2017-09-01T02:19:20.402Z,99.90
2017-09-01T02:21:47.849Z,99.90
2017-09-01T02:24:15.287Z,99.90
2017-09-01T02:26:42.736Z,99.90
2017-09-01T02:29:10.175Z,99.90
2017-09-01T02:31:37.622Z,99.90
2017-09-01T02:34:05.059Z,99.90
2017-09-01T02:36:32.503Z,99.90
2017-09-01T02:38:59.949Z,99.90
2017-09-01T02:41:27.385Z,99.90
2017-09-01T02:43:54.837Z,99.90
2017-09-01T02:46:22.281Z,99.90
2017-09-01T02:48:49.710Z,99.90
2017-09-01T02:51:17.159Z,99.90
2017-09-01T02:53:44.613Z,99.90
2017-09-01T02:56:12.064Z,99.90
2017-09-01T02:58:39.507Z,99.90
2017-09-01T03:01:06.946Z,99.90
2017-09-01T03:03:34.395Z,99.90
2017-09-01T03:06:01.837Z,99.90
2017-09-01T03:08:29.288Z,99.90
2017-09-01T03:10:56.718Z,99.90
2017-09-01T03:13:24.183Z,99.90
2017-09-01T03:15:51.632Z,99.90
2017-09-01T03:18:19.080Z,99.90
2017-09-01T03:20:46.524Z,99.90
2017-09-01T03:23:13.982Z,99.90
2017-09-01T03:25:41.452Z,99.90
2017-09-01T03:28:08.900Z,99.90
2017-09-01T03:30:36.348Z,99.90
2017-09-01T03:33:03.799Z,99.90
2017-09-01T03:35:31.235Z,99.90
2017-09-01T03:37:58.704Z,99.90
2017-09-01T03:40:26.147Z,99.90
2017-09-01T03:42:53.599Z,99.90
2017-09-01T03:45:21.036Z,99.90
2017-09-01T03:47:48.473Z,99.90
2017-09-01T03:50:15.908Z,99.90
2017-09-01T03:52:43.344Z,99.90
2017-09-01T03:55:10.789Z,99.90
2017-09-01T03:57:38.223Z,99.90
2017-09-01T04:00:05.668Z,99.90
2017-09-01T04:02:33.111Z,99.90
2017-09-01T04:05:00.556Z,99.90
2017-09-01T04:07:27.986Z,99.90
2017-09-01T04:09:55.427Z,99.90
2017-09-01T04:12:22.859Z,99.90
2017-09-01T04:14:50.295Z,99.90
2017-09-01T04:17:17.735Z,99.90
2017-09-01T04:19:45.171Z,99.90
2017-09-01T04:22:12.601Z,99.90
2017-09-01T04:24:40.041Z,99.90
2017-09-01T04:27:07.485Z,99.90
2017-09-01T04:29:34.923Z,99.90
2017-09-01T04:32:02.360Z,99.90
2017-09-01T04:34:29.795Z,99.90
2017-09-01T04:36:57.237Z,99.90
2017-09-01T04:39:24.667Z,99.90
2017-09-01T04:41:52.109Z,99.90
2017-09-01T04:44:19.540Z,99.90
2017-09-01T04:46:46.991Z,99.90
2017-09-01T04:49:14.426Z,99.90
2017-09-01T04:51:41.863Z,99.90
2017-09-01T04:54:09.316Z,99.90
2017-09-01T04:56:36.764Z,99.90
2017-09-01T04:59:04.258Z,99.90
2017-09-01T05:01:31.903Z,99.90
2017-09-01T05:03:59.391Z,99.90
2017-09-01T05:06:26.832Z,99.90
2017-09-01T05:08:54.270Z,99.90
2017-09-01T05:11:21.720Z,99.90
2017-09-01T05:13:49.160Z,99.90
2017-09-01T05:16:17.654Z,99.90
2017-09-01T05:18:45.085Z,99.90
2017-09-01T05:21:12.525Z,99.90
2017-09-01T05:23:39.967Z,99.90
2017-09-01T05:26:07.432Z,99.90
2017-09-01T05:28:34.859Z,99.90
2017-09-01T05:31:02.303Z,99.90
2017-09-01T05:33:29.745Z,99.90
2017-09-01T05:35:57.184Z,99.90
2017-09-01T05:38:24.628Z,99.90
2017-09-01T05:40:52.067Z,99.90
2017-09-01T05:43:19.528Z,99.90
2017-09-01T05:45:46.968Z,99.90
2017-09-01T05:48:14.417Z,99.90
2017-09-01T05:50:41.862Z,99.90
2017-09-01T05:53:09.310Z,99.90
2017-09-01T05:55:36.758Z,99.90
2017-09-01T05:58:04.212Z,99.90
2017-09-01T06:00:31.716Z,99.90
2017-09-01T06:02:59.185Z,99.90
2017-09-01T06:05:26.665Z,99.90
2017-09-01T06:11:07.532Z,99.90
2017-09-01T06:16:25.926Z,99.90
2017-09-01T06:18:53.643Z,99.90
2017-09-01T06:25:52.056Z,99.90
2017-09-01T06:31:01.700Z,99.90
2017-09-01T06:33:29.151Z,99.90
2017-09-01T06:35:56.637Z,99.90
2017-09-01T06:38:24.086Z,99.90
2017-09-01T06:40:51.539Z,99.90
2017-09-01T06:43:18.977Z,99.90
2017-09-01T06:45:46.419Z,99.90
2017-09-01T06:48:13.869Z,99.90
2017-09-01T06:50:41.307Z,99.90
2017-09-01T06:53:08.761Z,99.90
2017-09-01T06:55:36.200Z,99.90
2017-09-01T06:58:03.636Z,99.90
2017-09-01T07:00:31.085Z,99.90
2017-09-01T07:02:58.524Z,99.90
2017-09-01T07:05:25.966Z,99.90
2017-09-01T07:07:53.403Z,99.90
2017-09-01T07:10:20.852Z,99.90
2017-09-01T07:12:48.287Z,99.90
2017-09-01T07:15:15.736Z,99.90
2017-09-01T07:17:43.177Z,99.90
2017-09-01T07:20:10.627Z,99.90
2017-09-01T07:22:38.071Z,99.90
2017-09-01T07:25:05.516Z,99.90
2017-09-01T07:27:32.960Z,99.90
2017-09-01T07:30:00.409Z,99.90
2017-09-01T07:32:27.839Z,99.90
2017-09-01T07:34:55.290Z,99.90
2017-09-01T07:37:22.729Z,99.90
2017-09-01T07:39:50.175Z,99.90
2017-09-01T07:42:17.621Z,99.90
2017-09-01T07:44:45.074Z,99.90
2017-09-01T07:47:12.513Z,99.90
2017-09-01T07:49:39.956Z,99.90
2017-09-01T07:52:07.390Z,99.90
2017-09-01T07:54:34.834Z,99.90
2017-09-01T07:57:02.271Z,99.90
2017-09-01T07:59:29.706Z,99.90
2017-09-01T08:01:57.188Z,99.90
2017-09-01T08:04:26.342Z,99.90
2017-09-01T08:06:53.785Z,99.90
2017-09-01T08:09:21.220Z,99.90
2017-09-01T08:11:48.670Z,99.90
2017-09-01T08:14:16.111Z,99.90
2017-09-01T08:16:43.551Z,99.90
2017-09-01T08:19:10.983Z,99.90
2017-09-01T08:21:38.431Z,99.90
2017-09-01T08:24:05.864Z,99.90
2017-09-01T08:26:33.305Z,99.90
2017-09-01T08:29:00.749Z,99.90
2017-09-01T08:31:28.192Z,99.90
2017-09-01T08:33:55.622Z,99.90
2017-09-01T08:36:23.068Z,99.90
2017-09-01T08:38:50.514Z,99.90
2017-09-01T08:41:18.017Z,99.90
2017-09-01T08:43:45.443Z,99.90
2017-09-01T08:46:12.896Z,99.90
2017-09-01T08:48:40.338Z,99.90
2017-09-01T08:51:07.796Z,99.90
2017-09-01T08:53:35.244Z,99.90
2017-09-01T08:56:02.687Z,99.90
2017-09-01T08:58:30.116Z,99.90
2017-09-01T09:00:57.557Z,99.90
2017-09-01T09:03:24.992Z,99.90
2017-09-01T09:05:52.429Z,99.90
2017-09-01T09:08:19.867Z,99.90
2017-09-01T09:10:47.300Z,99.90
2017-09-01T09:13:14.738Z,99.90
2017-09-01T09:15:42.178Z,99.90
2017-09-01T09:18:09.611Z,99.90
2017-09-01T09:20:37.086Z,99.90
2017-09-01T09:23:04.521Z,99.90
2017-09-01T09:25:32.037Z,99.90
2017-09-01T09:27:59.518Z,99.90
2017-09-01T09:30:26.992Z,99.90
2017-09-01T09:32:54.453Z,99.90
2017-09-01T09:35:21.902Z,99.90
2017-09-01T09:37:49.350Z,99.90
2017-09-01T09:40:16.805Z,99.90
2017-09-01T09:42:44.273Z,99.90
2017-09-01T09:45:11.733Z,99.90
2017-09-01T09:47:39.218Z,99.90
2017-09-01T09:50:06.685Z,99.90
2017-09-01T09:52:34.124Z,98.70
2017-09-01T09:57:35.449Z,99.90
2017-09-01T10:00:02.916Z,99.80
2017-09-01T10:02:30.362Z,99.90
2017-09-01T10:04:57.892Z,99.90
2017-09-01T10:07:25.612Z,99.90
2017-09-01T10:09:53.101Z,99.90
2017-09-01T10:12:20.562Z,99.90
2017-09-01T10:14:48.018Z,99.90
2017-09-01T10:17:15.501Z,99.90
2017-09-01T10:19:42.941Z,99.90
2017-09-01T10:22:10.381Z,99.90
2017-09-01T10:24:37.823Z,99.90
2017-09-01T10:27:05.361Z,99.90
2017-09-01T10:29:32.830Z,99.90
2017-09-01T10:32:00.301Z,99.90
2017-09-01T10:34:27.786Z,99.90
2017-09-01T10:36:55.270Z,99.90
2017-09-01T10:39:22.715Z,99.90
2017-09-01T10:41:50.789Z,99.90
2017-09-01T10:44:18.275Z,99.90
2017-09-01T10:46:45.758Z,99.90
2017-09-01T10:49:19.790Z,99.90
2017-09-01T10:55:04.086Z,99.90
2017-09-01T10:57:43.284Z,99.90
2017-09-01T11:00:10.788Z,99.90
2017-09-01T11:02:38.222Z,99.90
2017-09-01T11:05:06.538Z,99.90
2017-09-01T11:07:34.069Z,99.90
2017-09-01T11:10:01.567Z,99.90
2017-09-01T11:12:29.020Z,99.90
2017-09-01T11:14:56.464Z,99.90
2017-09-01T11:17:23.908Z,99.90
2017-09-01T11:19:56.971Z,99.90
2017-09-01T11:22:30.203Z,99.90
2017-09-01T11:24:57.638Z,99.90
2017-09-01T11:27:25.082Z,99.90
2017-09-01T11:29:52.518Z,99.90
2017-09-01T11:32:19.968Z,99.90
2017-09-01T11:34:47.766Z,99.90
2017-09-01T11:37:15.200Z,99.90
2017-09-01T11:39:42.646Z,99.90
2017-09-01T11:42:10.104Z,99.90
2017-09-01T11:44:37.549Z,99.90
2017-09-01T11:47:04.999Z,99.90
2017-09-01T11:49:32.448Z,99.70
2017-09-01T11:51:59.913Z,96.80
2017-09-01T11:54:27.364Z,99.30
2017-09-01T11:56:54.825Z,99.80
2017-09-01T11:59:22.295Z,99.90
2017-09-01T12:01:49.760Z,99.90
2017-09-01T12:04:17.250Z,99.90
2017-09-01T12:06:44.683Z,95.90
2017-09-01T12:09:12.154Z,95.40
2017-09-01T12:11:39.591Z,97.90
2017-09-01T12:14:07.033Z,99.70
2017-09-01T12:16:34.476Z,99.80
2017-09-01T12:19:02.793Z,98.60
2017-09-01T12:21:30.235Z,98.80
2017-09-01T12:23:57.683Z,98.80
2017-09-01T12:26:25.120Z,98.40
2017-09-01T12:28:52.564Z,99.10
2017-09-01T12:31:20.008Z,99.40
2017-09-01T12:33:47.456Z,99.90
2017-09-01T12:36:14.891Z,99.90
2017-09-01T12:38:42.335Z,99.90
2017-09-01T12:41:09.785Z,99.90
2017-09-01T12:43:37.218Z,99.90
2017-09-01T12:46:04.667Z,99.90
2017-09-01T12:48:32.128Z,99.90
2017-09-01T12:50:59.564Z,99.90
2017-09-01T12:53:27.000Z,99.40
2017-09-01T12:55:54.451Z,99.70
2017-09-01T12:58:21.896Z,98.50
2017-09-01T13:00:49.349Z,98.10
2017-09-01T13:03:16.775Z,98.50
2017-09-01T13:05:44.216Z,99.20
2017-09-01T13:08:11.652Z,98.80
2017-09-01T13:10:39.101Z,98.70
2017-09-01T13:13:06.536Z,98.80
2017-09-01T13:15:34.258Z,98.70
2017-09-01T13:18:01.735Z,99.10
2017-09-01T13:20:29.175Z,99.50
2017-09-01T13:22:56.610Z,99.20
2017-09-01T13:25:24.051Z,99.30
2017-09-01T13:27:51.484Z,98.90
2017-09-01T13:30:18.935Z,95.90
2017-09-01T13:32:46.383Z,96.10
2017-09-01T13:35:13.831Z,94.70
2017-09-01T13:37:41.275Z,94.10
2017-09-01T13:40:08.715Z,93.60
2017-09-01T13:42:36.157Z,94.10
2017-09-01T13:45:03.609Z,95.30
2017-09-01T13:47:31.039Z,94.70
2017-09-01T13:49:58.488Z,94.80
2017-09-01T13:52:25.950Z,94.30
2017-09-01T13:54:53.374Z,95.70
2017-09-01T13:57:20.832Z,95.40
2017-09-01T13:59:48.260Z,96.10
2017-09-01T14:02:15.707Z,94.10
2017-09-01T14:04:43.152Z,94.40
2017-09-01T14:07:10.592Z,94.60
2017-09-01T14:09:38.024Z,95.30
2017-09-01T14:12:05.468Z,95.80
2017-09-01T14:14:32.902Z,95.70
2017-09-01T14:17:00.343Z,95.30
2017-09-01T14:19:27.779Z,96.00
2017-09-01T14:21:55.221Z,95.90
2017-09-01T14:24:22.656Z,95.60
2017-09-01T14:26:50.098Z,93.30
2017-09-01T14:29:17.540Z,94.30
2017-09-01T14:31:44.989Z,95.30
2017-09-01T14:34:12.430Z,96.40
2017-09-01T14:36:39.882Z,97.20
2017-09-01T14:39:07.311Z,96.00
2017-09-01T14:41:34.751Z,95.90
2017-09-01T14:44:02.192Z,92.90
2017-09-01T14:46:29.629Z,93.40
2017-09-01T14:48:57.072Z,93.30
2017-09-01T14:51:24.508Z,94.20
2017-09-01T14:53:51.952Z,94.80
2017-09-01T14:56:19.395Z,95.60
2017-09-01T14:58:46.836Z,95.20
2017-09-01T15:01:14.269Z,94.50
2017-09-01T15:03:41.717Z,95.20
2017-09-01T15:06:09.147Z,94.90
2017-09-01T15:08:36.591Z,94.00
2017-09-01T15:11:04.040Z,94.20
2017-09-01T15:13:31.471Z,94.20
2017-09-01T15:15:58.903Z,93.60
2017-09-01T15:18:26.344Z,93.60
2017-09-01T15:20:53.778Z,93.80
2017-09-01T15:23:21.223Z,94.90
2017-09-01T15:28:22.611Z,96.70
2017-09-01T15:30:50.044Z,95.10
2017-09-01T15:33:17.492Z,94.10
2017-09-01T15:35:44.926Z,94.90
2017-09-01T15:38:12.372Z,95.40
2017-09-01T15:40:39.812Z,93.80
2017-09-01T15:43:07.267Z,95.30
2017-09-01T15:45:34.705Z,95.60
2017-09-01T15:48:04.351Z,95.40
2017-09-01T15:50:31.781Z,95.70
2017-09-01T15:52:59.216Z,95.80
2017-09-01T15:55:26.654Z,95.80
2017-09-01T15:57:54.099Z,95.50
2017-09-01T16:00:21.532Z,95.50
2017-09-01T16:02:48.963Z,95.10
2017-09-01T16:05:16.408Z,95.20
2017-09-01T16:07:43.847Z,96.10
2017-09-01T16:10:11.295Z,95.70
2017-09-01T16:12:38.726Z,95.10
2017-09-01T16:15:06.169Z,95.50
2017-09-01T16:17:33.603Z,95.00
2017-09-01T16:20:01.052Z,95.60
2017-09-01T16:22:28.490Z,95.80
2017-09-01T16:24:55.929Z,95.00
2017-09-01T16:27:23.360Z,95.50
2017-09-01T16:29:50.799Z,95.70
2017-09-01T16:32:18.237Z,95.90
2017-09-01T16:34:45.685Z,95.70
2017-09-01T16:37:13.350Z,95.60
2017-09-01T16:39:40.776Z,96.20
2017-09-01T16:42:08.207Z,95.80
2017-09-01T16:44:35.644Z,95.70
2017-09-01T16:47:03.091Z,95.90
2017-09-01T16:49:30.536Z,96.30
2017-09-01T16:51:57.968Z,96.50
2017-09-01T16:54:25.404Z,95.50
2017-09-01T16:56:52.850Z,95.00
2017-09-01T16:59:20.283Z,94.80
2017-09-01T17:01:47.729Z,95.10
2017-09-01T17:04:15.170Z,94.70
2017-09-01T17:06:42.609Z,95.20
2017-09-01T17:09:10.048Z,95.20
2017-09-01T17:11:37.483Z,95.20
2017-09-01T17:14:04.925Z,95.20
2017-09-01T17:16:32.365Z,95.80
2017-09-01T17:18:59.800Z,95.30
2017-09-01T17:21:27.244Z,95.80
2017-09-01T17:23:54.687Z,95.70
2017-09-01T17:26:22.120Z,95.20
2017-09-01T17:28:49.560Z,95.40
2017-09-01T17:31:17.007Z,95.60
2017-09-01T17:33:44.452Z,96.40
2017-09-01T17:36:11.890Z,96.00
2017-09-01T17:38:39.330Z,96.10
2017-09-01T17:41:06.793Z,96.10
2017-09-01T17:43:34.232Z,96.30
2017-09-01T17:46:01.667Z,96.20
2017-09-01T17:48:29.105Z,96.30
2017-09-01T17:50:56.544Z,96.10
2017-09-01T17:53:23.992Z,96.40
2017-09-01T17:55:51.442Z,96.50
2017-09-01T17:58:18.888Z,96.40
2017-09-01T18:00:46.330Z,96.20
2017-09-01T18:03:13.795Z,96.90
2017-09-01T18:05:41.233Z,96.80
2017-09-01T18:08:08.675Z,97.10
2017-09-01T18:10:36.661Z,97.60
2017-09-01T18:13:04.108Z,96.80
2017-09-01T18:15:31.535Z,96.90
2017-09-01T18:17:58.972Z,97.00
2017-09-01T18:20:26.405Z,97.00
2017-09-01T18:22:53.849Z,97.00
2017-09-01T18:25:21.279Z,97.20
2017-09-01T18:27:48.725Z,97.50
2017-09-01T18:30:16.163Z,97.60
2017-09-01T18:32:43.603Z,97.80
2017-09-01T18:35:11.041Z,98.10
2017-09-01T18:37:38.481Z,98.20
2017-09-01T18:40:05.919Z,98.40
2017-09-01T18:42:33.361Z,98.20
2017-09-01T18:45:00.800Z,98.20
2017-09-01T18:47:28.234Z,98.30
2017-09-01T18:49:55.669Z,98.10
2017-09-01T18:52:23.107Z,97.80
2017-09-01T18:54:50.549Z,97.80
2017-09-01T18:57:17.978Z,98.20
2017-09-01T18:59:45.425Z,98.40
2017-09-01T19:02:12.864Z,98.50
2017-09-01T19:04:40.311Z,98.00
2017-09-01T19:07:07.755Z,98.20
2017-09-01T19:09:35.202Z,98.10
2017-09-01T19:12:02.635Z,98.20
2017-09-01T19:14:30.208Z,98.20
2017-09-01T19:16:57.647Z,98.40
2017-09-01T19:19:25.087Z,98.80
2017-09-01T19:21:52.523Z,99.20
2017-09-01T19:24:19.961Z,99.30
2017-09-01T19:26:47.573Z,99.20
2017-09-01T19:29:25.231Z,99.30
2017-09-01T19:31:52.792Z,99.70
2017-09-01T19:34:20.516Z,99.60
2017-09-01T19:36:48.163Z,99.70
2017-09-01T19:39:16.029Z,99.70
2017-09-01T19:41:43.598Z,99.70
2017-09-01T19:44:11.180Z,99.90
2017-09-01T19:46:38.757Z,99.90
2017-09-01T19:49:06.289Z,99.90
2017-09-01T19:51:33.748Z,99.90
2017-09-01T19:54:01.293Z,99.90
2017-09-01T19:56:28.907Z,99.90
2017-09-01T19:58:56.791Z,99.90
2017-09-01T20:01:24.267Z,99.90
2017-09-01T20:03:51.708Z,99.90
2017-09-01T20:06:19.168Z,99.90
2017-09-01T20:08:46.604Z,99.90
2017-09-01T20:11:14.049Z,99.90
2017-09-01T20:13:41.485Z,99.90
2017-09-01T20:16:08.932Z,99.90
2017-09-01T20:18:36.369Z,99.90
2017-09-01T20:21:03.812Z,99.90
2017-09-01T20:23:31.249Z,99.90
2017-09-01T20:25:58.688Z,99.90
2017-09-01T20:28:26.129Z,99.90
2017-09-01T20:30:53.568Z,99.90
2017-09-01T20:33:21.008Z,99.90
2017-09-01T20:35:48.470Z,99.90
2017-09-01T20:38:15.907Z,99.90
2017-09-01T20:40:43.348Z,99.90
2017-09-01T20:43:10.783Z,99.90
2017-09-01T20:45:38.222Z,99.90
2017-09-01T20:48:05.658Z,99.90
2017-09-01T20:50:33.090Z,99.90
2017-09-01T20:53:00.632Z,99.90
2017-09-01T20:55:28.235Z,99.90
2017-09-01T20:57:55.957Z,99.90
2017-09-01T21:00:23.494Z,99.90
2017-09-01T21:02:51.023Z,99.90
2017-09-01T21:05:18.628Z,99.90
2017-09-01T21:07:46.058Z,99.90
2017-09-01T21:10:13.487Z,99.90
2017-09-01T21:12:40.923Z,99.90
2017-09-01T21:15:08.359Z,99.90
2017-09-01T21:17:35.791Z,99.90
2017-09-01T21:20:03.218Z,99.90
2017-09-01T21:22:30.663Z,99.90
2017-09-01T21:24:58.096Z,99.60
2017-09-01T21:27:25.529Z,99.40
2017-09-01T21:29:52.958Z,99.90
2017-09-01T21:32:20.391Z,99.90
2017-09-01T21:34:47.828Z,99.70
2017-09-01T21:37:15.279Z,99.90
2017-09-01T21:39:42.708Z,99.90
2017-09-01T21:42:10.139Z,99.90
2017-09-01T21:44:37.578Z,99.90
2017-09-01T21:47:05.015Z,99.90
2017-09-01T21:49:32.444Z,99.90
2017-09-01T21:51:59.875Z,99.90
2017-09-01T21:54:27.319Z,99.90
2017-09-01T21:56:54.743Z,99.90
2017-09-01T21:59:22.191Z,99.90
2017-09-01T22:01:49.619Z,99.90
2017-09-01T22:04:17.052Z,99.90
2017-09-01T22:06:44.493Z,99.90
2017-09-01T22:09:11.932Z,99.90
2017-09-01T22:11:39.364Z,99.60
2017-09-01T22:14:06.803Z,99.90
2017-09-01T22:16:34.237Z,99.90
2017-09-01T22:19:01.672Z,99.80
2017-09-01T22:21:29.099Z,99.60
2017-09-01T22:23:56.540Z,99.70
2017-09-01T22:26:23.974Z,99.50
2017-09-01T22:28:51.412Z,99.30
2017-09-01T22:31:18.838Z,99.20
2017-09-01T22:33:46.285Z,99.00
2017-09-01T22:36:13.712Z,98.90
2017-09-01T22:38:41.173Z,99.00
2017-09-01T22:41:08.604Z,98.80
2017-09-01T22:43:36.030Z,98.30
2017-09-01T22:46:03.874Z,98.40
2017-09-01T22:48:31.300Z,98.40
2017-09-01T22:50:58.738Z,98.40
2017-09-01T22:53:26.168Z,98.40
2017-09-01T22:55:53.609Z,98.50
2017-09-01T22:58:21.035Z,98.60
2017-09-01T23:00:48.475Z,98.90
2017-09-01T23:03:15.913Z,98.90
2017-09-01T23:05:43.348Z,98.70
2017-09-01T23:08:10.771Z,98.80
2017-09-01T23:10:38.209Z,98.60
2017-09-01T23:13:05.648Z,98.70
2017-09-01T23:15:33.083Z,98.50
2017-09-01T23:18:00.515Z,98.50
2017-09-01T23:20:27.956Z,98.20
2017-09-01T23:22:55.383Z,98.20
2017-09-01T23:25:22.816Z,97.90
2017-09-01T23:27:50.251Z,98.20
2017-09-01T23:30:17.688Z,97.90
2017-09-01T23:32:45.120Z,98.20
2017-09-01T23:35:12.557Z,98.30
2017-09-01T23:37:39.988Z,98.30
2017-09-01T23:40:07.435Z,98.30
2017-09-01T23:42:34.871Z,98.00
2017-09-01T23:45:02.324Z,98.20
2017-09-01T23:47:29.751Z,98.30
2017-09-01T23:49:57.183Z,98.20
2017-09-01T23:52:24.617Z,97.70
2017-09-01T23:54:52.053Z,98.10
2017-09-01T23:57:19.494Z,98.20
2017-09-01T23:59:46.915Z,98.30
